Impressum | Hilfe


INSOLVENZRADARBETA

Suchen Sie mit uns nach Insolvenzeröffnungen in Deutschland



2017-07-18 - Assindia Grundstücksverwaltung GmbH, Essen, HRB 18864 (162 IN 96/17) mehr...
2017-07-17 - ADE CONCEPT UG (haftungsbeschränkt), Essen, HRB 27201 (162 IN 118/17) mehr...
2017-07-10 - Assindia Bausanierung GmbH, Essen, HRB 21715 (162 IN 97/17) mehr...
2017-07-04 - Progress-Bau Gesellschaft für zeitgemäßes Bauen mbH, Essen, HRB 26209 (163 IN 120/16) mehr...
2017-06-30 - RSA Rail-Service GmbH, Essen, HRB 26250 (166 IN 14/17) mehr...
2017-06-27 - TEMPTON Verwaltungs GmbH, Essen, HRB 13960 (166 IN 32/17) mehr...
2017-06-21 - bauart projektmanagement gmbh, Essen, HRB 22243 (163 IN 139/16) mehr...
2017-06-02 - 9+ projektentwicklung GmbH, Essen, HRB 24266 (161 IN 151/15) mehr...
2017-06-02 - TEMPTON Holding GmbH, Essen, HRB 26897 (166 IN 33/17) mehr...
2017-06-02 - TEMPTON Personaldienstleistungen GmbH, Essen, HRB 26884 (166 IN 35/17) mehr...
2017-06-02 - TH 1 GmbH, Essen, HRB 23940 (166 IN 34/17) mehr...
2017-06-01 - Kallisto UG (haftungsbeschränkt), Essen, HRB 25982 (160 IN 62/17) mehr...
2017-06-01 - Winkendick Dach- und Fassadenbau GmbH, Essen, HRB 22909 (165 IN 36/17) mehr...
2017-05-31 - I.S.T. Industrial Solutions & Technologies GmbH, Essen, HRB 26522 (162 IN 38/17) mehr...
2017-05-30 - PAS GmbH, Essen, HRB 3236 (163 IN 37/12) mehr...
2017-05-30 - Richter GmbH i. L., Essen, HRB 10912 (166 IN 25/17) mehr...
2017-05-24 - Vision Marketing GmbH, Essen, HRB 27384 (167 IN 31/17) mehr...
2017-05-18 - B14 FASHION GmbH, Essen, HRB 19616 (163 IN 1/17) mehr...
2017-05-17 - amberscoot GmbH, Essen, HRB 27629 (162 IN 30/17) mehr...
2017-05-11 - Volta-Solar GmbH, Essen, HRB 21152 (167 IN 20/17) mehr...
2017-05-02 - Blum GmbH, Birken-Honigsessen, HRB 22906 (11 IN 22/17) mehr...
2017-05-02 - Oschatz GmbH, Essen, HRB 190 (167 IN 8/17) mehr...
2017-04-21 - Früchte-Oase-Brenke GmbH, Essen, HRB 20460 (163 IN 26/17) mehr...
2017-04-19 - Gerhard Priebe GmbH, Essen, HRB 5232 (163 IN 33/17) mehr...
2017-04-07 - Rail Maintenance Experts - RME GmbH, Essen, HRB 205430 (166 IN 150/16) mehr...
2017-04-06 - BodenWert Verwaltung GmbH, Essen, HRB 21291 (163 IN 167/16) mehr...
2017-04-04 - Oschatz Filtertechnik Verwaltungs GmbH, Essen, HRB 25990 (167 IN 15/17) mehr...
2017-03-14 - Elektrotechnik Salviz GmbH, Essen, HRB 17758 (165 IN 36/16) mehr...
2017-03-03 - BBA Baugesellschaft mbH, Hessenring 1 34260 Kaufungen, HRB 15267 (666 IN 385/16) mehr...
2017-03-02 - GMU Gesellschaft für Materialrückgewinnung und Umweltschutz mbH, Essen, HRB 13339 (162 IN 238/15) mehr...
2017-03-02 - KWP Recycling GmbH, Essen, HRB 26009 (160 IN 149/16) mehr...
2017-03-01 - Sportsbetting GmbH, Essen, HRB 18727 (165 IN 105/16) mehr...
2017-03-01 - Bracke Umweltservice GmbH, Essen, HRB 21182 (163 IN 11/17) mehr...
2017-02-21 - BDN Business Development Network GmbH, Essen, HRB 26405 (163 IN 156/16) mehr...
2017-02-13 - Westfalia GK GmbH, Essen, HRB 8178 (165 IN 139/16) mehr...
2017-02-08 - TBR Technology Business GmbH, Essen, HRB 22851 (166 IN 102/16) mehr...
2017-02-07 - Long Reach GmbH, Essen, HRB 18136 (166 IN 142/16) mehr...
2017-02-01 - IQ Energies GmbH, Essen, HRB 22537 (162 IN 197/16) mehr...
2017-02-01 - Mahmut Karaduman Möbel Royal GmbH, Essen, HRB 25171 (160 IN 137/16) mehr...
2017-01-27 - Vemma Deutschland GmbH, Essen, HRB 126857 B (167 IN 64/16) mehr...
2017-01-13 - Benelux Finance Trustee Limited, Essen, HRB 19784 (163 IN 142/16) mehr...
2017-01-02 - hotelwebservice GmbH, Essen, HRB 18397 (164 IN 82/16) mehr...
2017-01-02 - mc3 Druck & Medienproduktions GmbH, Essen, HRB 27221 (161 IN 142/16) mehr...
2016-12-19 - GS Trockenbau GmbH, Essen, HRB 24743 (106 IN 3/15) mehr...
2016-11-29 - Franken object services GmbH, Essen, HRB 21326 (164 IN 77/16) mehr...
2016-11-29 - MBG Concept GmbH, Essen, HRB 24646 (162 IN 60/16) mehr...
2016-11-29 - Mediengruppe Balkan GmbH, Essen, HRB 12025 (161 IN 33/16) mehr...
2016-11-28 - MS Mode GmbH, Essen, HRB 7763 (161 IN 124/16) mehr...
2016-11-16 - STI Schweißtechnik International Gesellschaft mit beschränkter Haftung, Essen, HRB 19091 (165 IN 116/16) mehr...
2016-11-15 - green clean Textilreingung UG (haftungsbeschränkt), Essen, HRB 26629 (162 IN 189/16) mehr...
2016-11-15 - SVK Media-Service GmbH, Essen, HRB 6328 (165 IN 122/16) mehr...
2016-10-27 - EasyImmo GmbH, Essen, HRB 21836 (162 IN 136/15) mehr...
2016-10-14 - Immofine Deutschland GmbH, Essen, HRB 19861 (162 IN 133/16) mehr...
2016-10-04 - EAT Medien GmbH, Essen, HRB 8026 (162 IN 168/16) mehr...
2016-10-04 - Silwa Filmvertrieb GmbH, Essen, HRB 24745 (165 IN 107/16) mehr...
2016-09-30 - Haase Atelier GmbH, Essen, HRB 4351 (164 IN 65/16) mehr...
2016-09-30 - Haase Service GmbH, Essen, HRB 9148 (164 IN 67/16) mehr...
2016-09-30 - Haase-Shop Gardinenvertrieb GmbH, Essen, HRB 8332 (164 IN 66/16) mehr...
2016-09-30 - Haase Fachmarkt Textilienvertrieb GmbH, Essen, HRB 4227 (164 IN 68/16) mehr...
2016-09-29 - Speedkills Automotive GmbH, Essen, HRB 21785 (165 IN 6/16) mehr...
2016-09-27 - Profima Video Discount GmbH, Essen, HRB 13484 (163 IN 107/16) mehr...
2016-09-27 - PUAKA Video Production GmbH, Essen, HRB 20571 (163 IN 105/16) mehr...
2016-09-26 - inquira HR executive search GmbH, Essen, HRB 17366 (162 IN 102/16) mehr...
2016-09-23 - ELFRA Filmproduktions- und Verlagsgesellschaft mit beschränkter Haftung, Essen, HRB 2978 (162 IN 172/16) mehr...
2016-09-22 - VIDEORAMA GmbH, Essen, HRB 6553 (167 IN 65/16) mehr...
2016-09-19 - RBE Immobilien GmbH, Bad Essen, HRB 200227 (46 IN 21/15) mehr...
2016-09-14 - ALLCONTEC Fahrzeugteile GmbH, Essen, HRB 24570 (162 IN 135/16) mehr...
2016-09-01 - Kalle Krause GmbH, Essen, HRB 15848 (160 IN 81/16) mehr...
2016-08-30 - HTD-Trailers GmbH, Essen, HRB 209228 (9 IN 67/16) mehr...
2016-08-17 - Bodenausstatter Vacca UG (haftungsbeschränkt), Essen, HRB 24065 (167 IN 9/16) mehr...
2016-08-10 - Glas im Raum UG (haftungsbeschränkt), Essen, HRB 22596 (162 IN 144/16) mehr...
2016-08-04 - Clever Trading Software GmbH, Sickte - Evessen, HRB 204790 (274 IN 175/16 b) mehr...
2016-08-01 - MS Gebäudereinigungsservice UG (haftungsbeschränkt), Essen, HRB 25737 (161 IN 62/16) mehr...
2016-07-21 - Dirksen Garten- und Landschaftsbau Gesellschaft mbH, Essen, HRB 21413 (160 IN 33/16) mehr...
2016-07-08 - REPA - Elektro UG (haftungsbeschränkt), Essen, HRB 22329 (166 IN 5/16) mehr...
2016-07-08 - RGHandel GmbH, Essen, HRB 26643 (166 IN 154/15) mehr...
2016-07-04 - Fritz Halfmann GmbH, Essen, HRB 3953 (164 IN 130/15) mehr...
2016-07-01 - Board Partners Neuland GmbH, Essen, HRB 25500 (163 IN 48/16) mehr...
2016-06-30 - Gerd-Hermann Giesen Malereibetrieb GmbH, Essen, HRB 6299 (162 IN 82/16) mehr...
2016-06-23 - FBH Beteiligungsgesellschaft mit beschränkter Haftung, Essen, HRB 2877 (165 IN 19/16) mehr...
2016-06-16 - Laminat und Möbel Lagerverkauf GmbH, Essen, HRB 23281 (166 IN 134/15) mehr...
2016-06-14 - comm-i-t GmbH, Essen, HRB 16555 (162 IN 72/16) mehr...
2016-06-13 - Metallbau Langbehn Unternehmergesellschaft (haftungsbeschränkt), Essen, HRB 24184 (166 IN 160/15) mehr...
2016-06-09 - ivg Ingenieur- und Verwaltungsgesellschaft mbH, Essen, HRB 18352 (162 IN 47/16) mehr...
2016-06-06 - DIWI Germany GmbH, Essen, HRB 22495 (160 IN 35/16) mehr...
2016-06-02 - LIMON Transporte und Logistik GmbH, Essen, HRB 18624 (166 IN 31/16) mehr...
2016-05-30 - Kasfeld Service & Dienstleistungen UG (haftungsbeschränkt), Essen, HRB 22930 (160 IN 168/15) mehr...
2016-05-09 - MVG Medienvertriebsgesellschaft mbh, Essen, HRB 22354 (161 IN 169/15) mehr...
2016-05-03 - Legor Bau GmbH, Essen, HRB 22640 (166 IN 14/16) mehr...
2016-05-03 - leo.Seminare GmbH, Essen, HRB 24118 (166 IN 172/15) mehr...
2016-04-26 - Stuck und Putz Samuel UG (haftungsbeschränkt), Essen, HRB 24105 (165 IN 160/15) mehr...
2016-04-22 - MediWelt Reisen GmbH, Essen, HRB 25729 (161 IN 50/16) mehr...
2016-04-21 - Delta Property 1 GmbH, Essen, HRB 26742 (160 IN 170/15) mehr...
2016-04-19 - LS Service UG (haftungsbeschränkt), Essen, HRB 25251 (166 IN 41/15) mehr...
2016-04-11 - Spiel- und Freizeitbetrieb Faltenbacher GmbH, Essen, HRB 8147 (164 IN 133/15) mehr...
2016-04-05 - Tradco GmbH, Essen, HRB 22552 (166 IN 172/14) mehr...
2016-04-01 - FireStixx Holz-Energie GmbH, Essenbach, HRB 3871 (IN 77/16) mehr...
2016-04-01 - Metallcontor Essen GmbH, Essen, HRB 19234 (161 IN 34/16) mehr...
2016-03-31 - Manfred Flasch GmbH, Essen, HRB 5997 (164 IN 15/16) mehr...
2016-03-15 - Seven Hausmeisterservice GmbH, Essen, HRB 23360 (165 IN 113/15) mehr...
2016-03-03 - WebSell GmbH, Essen, HRB 24971 (165 IN 78/15) mehr...
2016-03-02 - Angenendt & Co. GmbH, Essen, HRB 1226 (162 IN 278/15) mehr...
2016-02-23 - German Medical Assistance GmbH, Essen, HRB 23344 (162 IN 247/15) mehr...
2016-02-23 - MS-Hochbau UG (haftungsbeschränkt), Essen, HRB 24129 (161 IN 160/15) mehr...
2016-02-18 - CONESRO Management GmbH, Essen, HRB 25370 (162 IN 251/15) mehr...
2016-02-16 - Hess GmbH, Essen, HRB 4942 (164 IN 132/15) mehr...
2016-02-04 - van Triel Gesellschaft mit beschränkter Haftung, Essen, HRB 2813 (166 IN 130/15) mehr...
2016-02-02 - mrs messen regeln steuern GmbH, Essen, HRB 2816 (161 IN 175/15) mehr...
2016-01-08 - Wehlmann GmbH, Essen, HRB 2440 (165 IN 155/15) mehr...
2016-01-07 - Nisko GmbH, Essen, HRB 25708 (161 IN 96/15) mehr...
2016-01-07 - Ataman Gastro Emmerich UG (haftungsbeschränkt), Essen, HRB 25562 (162 IN 152/15) mehr...
2015-12-29 - Kordasi GmbH, Essen, HRB 26425 (160 IN 90/15) mehr...
2015-12-29 - MESSEDESIGN International GmbH Gesellschaft für Messebaukonzeption und Grafik Design, Essen, HRB 13030 (161 IN 132/15) mehr...
2015-12-28 - ATA An- und Verkauf von Kraftfahrzeugteilen GmbH, Essen, HRB 4388 (162 IN 175/15) mehr...
2015-12-21 - FATAMORGANA GmbH, Essen, HRB 24132 (164 IN 85/15) mehr...
2015-12-08 - Schumag zweite Beteiligungsgesellschaft mbH, Essen, HRB 20910 (161 IN 261/08) mehr...
2015-12-03 - Kondensattechnik Lachmann GmbH, Essen, HRB 21272 (166 IN 143/15) mehr...
2015-12-01 - Schaltanlagenbau Krüger GmbH, Essen, HRB 2463 (160 IN 141/15) mehr...
2015-11-12 - KS Friseur-Betriebsgesellschaft NRW mbH, Essen, HRB 18917 (160 IN 84/15) mehr...
2015-11-03 - Zerres Rohrleitungs- und Tiefbau GmbH, Essen, HRB 14507 (167 IN 76/15) mehr...
2015-11-02 - HIRSCH Rohrleitungsbau GmbH, Essen, HRB 16245 (164 IN 104/15) mehr...
2015-10-28 - PeRo Mobiles GmbH, Essen, HRB 25746 (163 IN 116/15) mehr...
2015-10-27 - Recycling Center Essen GmbH, Essen, HRB 18736 (166 IN 92/15) mehr...
2015-10-26 - Gerda Dorn Bestattungsdienste UG (haftungsbeschränkt), Essen, HRB 23748 (160 IN 101/15) mehr...
2015-10-26 - kma Maschinen & Apparatebau GmbH, Essen, HRB 23488 (160 IN 119/15) mehr...
2015-10-14 - WIN-Tower GmbH, Essen, HRB 26038 (95 IN 35/15) mehr...
2015-10-09 - RSC Gleisbausicherung GmbH, Essen, HRB 24521 (166 IN 102/15) mehr...
2015-10-08 - SHB Sanitär- und Heizungs-Bau GmbH, Essen, HRB 20927 (165 IN 68/15) mehr...
2015-10-01 - W&W EigelStein GmbH, Essen, HRB 703903 (165 IN 104/15) mehr...
2015-09-29 - Sieg GmbH baut, begrünt + pflegt Essen, HRB 24593 (165 IN 32/15) mehr...
2015-09-29 - Möbel Royal GmbH, Essen, HRB 19316 (161 IN 22/15) mehr...
2015-09-25 - Sportswear Department GmbH, Essen, HRB 26266 (252 IN 74/15) mehr...
2015-09-21 - ips 3000 GmbH, Essen, HRB 8573 (162 IN 140/15) mehr...
2015-09-18 - Brownies Gastro GmbH, Essen, HRB 12952 (163 IN 4/15) mehr...
2015-09-08 - Atro Unternehmensgesellschaft (haftungsbeschränkt), Essen, HRB 24880 (162 IN 105/15) mehr...
2015-09-04 - FMP Sicherheitstechnik GmbH, Essen, HRB 14308 (164 IN 59/14) mehr...
2015-09-03 - Tautges & Friends Personaldienstleistungen GmbH, Essen, HRB 23450 (166 IN 88/15) mehr...
2015-09-01 - Hausmeisterzentrale Rhein/Ruhr UG (haftungsbeschränkt), Essen, HRB 22711 (164 IN 73/15) mehr...
2015-09-01 - S&G Automation GmbH, Essen, HRB 22255 (165 IN 85/15) mehr...
2015-08-31 - Schwarze Rose Gastronomie GmbH, Essen, HRB 6493 (161 IN 68/15) mehr...
2015-08-25 - Quadri Kuvert GmbH i. L., Essen, HRB 13797 (166 IN 57/15) mehr...
2015-08-19 - Sieg GmbH, Essen, HRB 5665 (165 IN 27/13) mehr...
2015-08-14 - WERKstatt Schumacher GmbH, Essen, HRB 9248 (161 IN 72/15) mehr...
2015-08-04 - "REUKA CARPETS" Teppichböden und Tapeten-Handelsgesellschaft mbH, Essen, HRB 8693 (166 IN 84/15) mehr...
2015-08-03 - FRIDA GmbH, Essen, HRB 25823 (164 IN 65/15) mehr...
2015-08-03 - Profra GmbH, Essen, HRB 25353 (163 IN 59/15) mehr...
2015-07-31 - phn GmbH, Essen, HRB 25354 (163 IN 80/15) mehr...
2015-07-21 - ACM Haus und Gebäude Service Unternehmensgesellschaft (haftungsbeschränkt), Essen, HRB 22324 (162 IN 106/15) mehr...
2015-07-16 - Food Conceptions GmbH, Essen, HRB 25188 (72 IN 212/15) mehr...
2015-07-10 - Metallrecycling Becker GmbH, Essen, HRB 20625 (163 IN 5/15) mehr...
2015-07-08 - ORGANICA GmbH, Essen, HRB 23924 (167 IN 22/15) mehr...
2015-07-07 - Rejus UG (haftungsbeschränkt), Essen, HRB 24573 (63 IN 150/14) mehr...
2015-07-07 - Hüller Mühle Projektenwickungsgesellschaft mbH, Essen, HRB 21750 (164 IN 33/15) mehr...
2015-07-03 - FDB CNC-Technik UG (haftungsbeschränkt), Essen, HRB 25310 (164 IN 135/14) mehr...
2015-07-02 - Elektrotechnik Hucklenbroch GmbH, Essen, HRB 25097 (164 IN 74/15) mehr...
2015-07-02 - HIGH Hotelbetriebs GmbH, Essen, HRB 18279 (164 IN 53/15) mehr...
2015-07-01 - Energie Ruhr AG, Essen, HRB 22319 (162 IN 54/15) mehr...
2015-07-01 - etc. trading gmbh, Essen, HRB 23296 (162 IN 76/15) mehr...
2015-06-30 - Pieper Auto-Elektrik-Teile-Großhandlung GmbH, Essen, HRB 6828 (163 IN 77/15) mehr...
2015-06-26 - TREUHAUS Haus und Handel GmbH, Essen, HRB 8054 (166 IN 26/15) mehr...
2015-06-24 - Grußkartenland GmbH, Willebadessen, HRB 5026 (2 IN 135/15) mehr...
2015-06-24 - Schwarze Rose GmbH, Essen, HRB 6493 (161 IN 68/15) mehr...
2015-06-24 - We Love Disco GmbH, Essen, HRB 25208 (165 IN 21/15) mehr...
2015-06-23 - Cheers Germany GmbH, Essen, HRB 25170 (162 IN 248/14) mehr...
2015-06-23 - Profact Communications GmbH, Essen, HRB 9937 (163 IN 73/15) mehr...
2015-06-16 - J. & J. Gleisrückbau GmbH, Essen, HRB 11569 (167 IN 6/15) mehr...
2015-06-11 - Beulen-Ambulanz UG, Essen, HRB 25810 (163 IN 58/15) mehr...
2015-06-08 - HeimZ Heimtierzubehörartikel GmbH, Essen, HRB 22043 (164 IN 44/15) mehr...
2015-06-03 - Barnstorf-Brandes & Co. Holzbau GmbH i.L., Evessen, HRB 8200 (273 IN 47/15 b) mehr...
2015-05-26 - Friseur Strathmann GmbH, Essen, HRB 23570 (165 IN 51/14) mehr...
2015-05-20 - ELBP Beteiligungs GmbH, Essen, HRB 21349 (67a IN 50/15) mehr...
2015-05-15 - WS Industrietechnik GmbH, Essen, HRB 14440 (165 IN 41/15) mehr...
2015-05-07 - MSI Rad GmbH, Essen, HRB 24664 (161 IN 1/15) mehr...
2015-05-04 - Impressionen Floral GmbH vormals Mikkelsen Raumbegrünung GmbH, Essen bzw. Flensburg, HRB 26122 (56 IN 23/15) mehr...
2015-05-04 - Manfred Petz GmbH, Essenbach, HRB 8608 (IN 174/15) mehr...
2015-04-23 - Convertec AG, Jessen/Elster, HRB 10185 (2 IN 57/15) mehr...
2015-04-14 - Food & More Service GmbH, Essen, HRB 24979 (164 IN 139/14) mehr...
2015-04-07 - ICC Import-Export Carcenter GmbH i.L., Essen, HRB 11945 (162 IN 273/14) mehr...
2015-04-07 - MGE Digital GmbH, Essen, HRB 22500 (161 IN 26/15) mehr...
2015-04-07 - MGE Verlag GmbH, Essen, HRB 18040 (161 IN 27/15) mehr...
2015-04-07 - MOMAX Germany GmbH, Essen, HRB 20546 (161 IN 15/15) mehr...
2015-04-07 - Wehlmann Marketing GmbH, Essen, HRB 24879 (165 IN 40/15) mehr...
2015-04-02 - TERRAMICA Gesellschaft mit beschränkter Haftung Vertrieb exclusiver Kachelsortimente internationaler Manufakturen, Essen, HRB 5155 (166 IN 104/14) mehr...
2015-04-02 - V2 connect GmbH, Essen, HRB 19282 (167 IN 13/15) mehr...
2015-04-01 - HDD Handelsgesellschaft mbH, Essen, HRB 17681 (164 IN 85/14) mehr...
2015-03-27 - Casa della Pasta grande UG (haftungsbeschränkt), Essen, HRB 23899 (162 IN 29/15) mehr...
2015-03-20 - KGH Edelstahltechnik Verwaltungsgesellschaft mbH, Essen, HRB 12939 (160 IN 189/14) mehr...
2015-03-16 - IMS Industrie Metallservice Toolmanagement GmbH, Essen, HRB 10668 (162 IN 215/13) mehr...
2015-03-16 - Wiebold-TV news GmbH, Essen, HRB 18217 (165 IN 146/14) mehr...
2015-03-11 - Loca Group UG, Essen, HRB 22830 (166 IN 178/14) mehr...
2015-03-05 - NES - Netto Export Handelsgesellschaft mbH, Essen, HRB 22637 (161 IN 64/13) mehr...
2015-03-05 - Schichtbetrieb GmbH, Essen, HRB 24695 (161 IN 163/14) mehr...
2015-03-04 - MD-Bau GmbH, Essen, HRB 20141 (161 IN 47/14) mehr...
2015-02-20 - Dozenten-NRW UG (haftungsbeschränkt), Essen, HRB 22832 (145 IN 14/15) mehr...
2015-02-13 - Panic Room GmbH, Essen, HRB 21408 (163 IN 199/14) mehr...
2015-02-09 - Hosenberg Stahl- und Metallbau GmbH, Essen, HRB 10190 (164 IN 103/14) mehr...
2015-02-06 - GDV Gesellschaft für DV-Beratung m.b.h., Essen, HRB 13075 (162 IN 288/14) mehr...
2015-02-03 - Ludewig GmbH, Essen, HRB 6387 (166 IN 183/14) mehr...
2015-02-02 - City Fitness GmbH, Essen, HRB 13054 (162 IN 278/14) mehr...
2015-01-30 - Profi Bau- und Planung GmbH, Essen, HRB 22585 (163 IN 167/14) mehr...
2015-01-29 - Back to Nature Aquaristik GmbH, Messenkamp, HRB 1002 (47 IN 95/14) mehr...
2015-01-05 - E. Overbeck GmbH, Essen, HRB 10918 ( 167 IN 77/14) mehr...
2014-12-18 - Arangon GmbH, Essen, HRB 21122 ( 162 IN 155/14) mehr...
2014-12-18 - SLT Metall GmbH, Essen, HRB 16207 ( 165 IN 54/14) mehr...
2014-12-03 - Westfälischer Zeitungsverlag Verwaltungs GmbH, Essen, HRB 70496 ( 165 IN 119/14) mehr...
2014-12-03 - Contour-Track GmbH, Essenbach, HRB 8718 ( IN 702/14) mehr...
2014-12-02 - Malerbetrieb Judith GmbH, Essen, HRB 22126 ( 167 IN 46/14) mehr...
2014-12-01 - IFA International GmbH, Essen, HRB 14448 ( 162 IN 4/14) mehr...
2014-12-01 - Becker Security GmbH, Essen, HRB 19411 ( 163 IN 170/14) mehr...
2014-11-12 - D & U Bautech Hochbau GmbH, Essen, HRB 24328 ( 160 IN 104/14) mehr...







Sonstiges